« Back
NWS Peachtree City, Ga » Text Product » AHN Terminal Aerodrome Forecast

Printer-friendly Version
Current Version              Previous Versions:   1  2  3  4  5  6  7  8  9  

Terminal Aerodrome Forecast

FTUS42 KFFC 101804 AAA
KAHN 101804Z 1018/1118 34005KT P6SM -RA SCT007 BKN015
      TEMPO 1018/1021 4SM -SHRA BR BKN007
     FM102100 35007KT P6SM SCT015 BKN025
     FM110200 02005KT P6SM BKN010
     FM110600 04004KT 4SM BR OVC007
     FM111400 05005KT P6SM OVC012
     FM111600 06006KT P6SM BKN020=

USA.gov is the U.S. government's official web portal to all federal, state and local government web resources and services.